createdAt,value
2019-06-26T00:01:07.407Z,25.68
2019-06-26T00:03:38.508Z,25.61
2019-06-26T00:06:09.214Z,25.66
2019-06-26T00:08:40.057Z,25.59
2019-06-26T00:11:11.055Z,25.62
2019-06-26T00:13:41.730Z,25.54
2019-06-26T00:16:12.452Z,25.54
2019-06-26T00:18:44.495Z,25.46
2019-06-26T00:21:15.555Z,25.42
2019-06-26T00:23:46.651Z,25.39
2019-06-26T00:26:17.396Z,25.33
2019-06-26T00:28:48.090Z,25.32
2019-06-26T00:31:19.106Z,25.42
2019-06-26T00:33:49.827Z,25.38
2019-06-26T00:36:20.521Z,25.41
2019-06-26T00:38:51.295Z,25.41
2019-06-26T00:41:22.537Z,25.33
2019-06-26T00:43:53.240Z,25.33
2019-06-26T00:46:24.088Z,25.32
2019-06-26T00:48:55.103Z,25.23
2019-06-26T00:51:25.811Z,25.20
2019-06-26T00:53:56.493Z,25.18
2019-06-26T00:56:27.532Z,25.13
2019-06-26T00:58:58.322Z,25.07
2019-06-26T01:01:29.135Z,24.90
2019-06-26T01:04:01.451Z,24.97
2019-06-26T01:06:44.421Z,24.97
2019-06-26T01:09:16.312Z,24.90
2019-06-26T01:11:47.327Z,24.89
2019-06-26T01:14:18.095Z,24.85
2019-06-26T01:16:50.376Z,24.68
2019-06-26T01:19:21.371Z,24.55
2019-06-26T01:21:52.347Z,24.55
2019-06-26T01:24:23.025Z,24.38
2019-06-26T01:26:54.023Z,24.43
2019-06-26T01:29:24.702Z,24.42
2019-06-26T01:31:55.423Z,24.44
2019-06-26T01:34:26.094Z,24.40
2019-06-26T01:36:56.831Z,24.39
2019-06-26T01:39:27.840Z,24.34
2019-06-26T01:41:58.989Z,24.35
2019-06-26T01:44:29.642Z,24.30
2019-06-26T01:47:00.444Z,24.18
2019-06-26T01:49:31.168Z,24.15
2019-06-26T01:52:02.041Z,24.21
2019-06-26T01:54:33.081Z,24.12
2019-06-26T01:57:04.058Z,24.17
2019-06-26T01:59:35.048Z,24.09
2019-06-26T02:02:05.888Z,24.07
2019-06-26T02:04:37.739Z,24.04
2019-06-26T02:07:08.430Z,24.05
2019-06-26T02:09:39.577Z,24.03
2019-06-26T02:12:10.441Z,24.07
2019-06-26T02:14:41.188Z,24.08
2019-06-26T02:17:11.905Z,24.13
2019-06-26T02:19:43.029Z,24.14
2019-06-26T02:22:13.755Z,24.28
2019-06-26T02:24:44.449Z,24.19
2019-06-26T02:27:15.213Z,24.12
2019-06-26T02:29:46.195Z,24.20
2019-06-26T02:32:17.240Z,24.18
2019-06-26T02:34:47.925Z,24.15
2019-06-26T02:37:19.053Z,24.09
2019-06-26T02:39:49.830Z,24.03
2019-06-26T02:42:20.920Z,24.11
2019-06-26T02:44:54.463Z,24.04
2019-06-26T02:47:24.310Z,24.20
2019-06-26T02:49:55.022Z,24.11
2019-06-26T02:52:25.679Z,24.17
2019-06-26T02:54:56.846Z,24.05
2019-06-26T02:57:27.869Z,23.99
2019-06-26T03:00:00.000Z,24.01
2019-06-26T03:02:31.266Z,24.05
2019-06-26T03:05:01.991Z,24.06
2019-06-26T03:07:33.040Z,24.07
2019-06-26T03:10:05.318Z,24.07
2019-06-26T03:12:36.790Z,24.03
2019-06-26T03:15:10.002Z,24.04
2019-06-26T03:17:54.039Z,23.95
2019-06-26T03:20:14.674Z,24.04
2019-06-26T03:22:45.444Z,24.02
2019-06-26T03:25:16.527Z,24.14
2019-06-26T03:27:47.241Z,24.07
2019-06-26T03:30:19.423Z,24.09
2019-06-26T03:32:50.088Z,24.06
2019-06-26T03:35:20.919Z,23.99
2019-06-26T03:37:51.999Z,24.02
2019-06-26T03:40:22.743Z,24.05
2019-06-26T03:42:53.813Z,24.10
2019-06-26T03:45:26.389Z,24.09
2019-06-26T03:47:57.027Z,24.11
2019-06-26T03:50:27.739Z,24.11
2019-06-26T03:52:58.742Z,24.09
2019-06-26T03:55:29.613Z,24.21
2019-06-26T03:58:00.703Z,24.24
2019-06-26T04:00:43.015Z,24.30
2019-06-26T04:03:14.384Z,24.26
2019-06-26T04:05:45.583Z,24.28
2019-06-26T04:08:16.725Z,24.43
2019-06-26T04:10:47.817Z,24.49
2019-06-26T04:13:18.738Z,24.53
2019-06-26T04:15:51.147Z,24.60
2019-06-26T04:18:22.012Z,24.72
2019-06-26T04:20:52.883Z,24.89
2019-06-26T04:23:23.951Z,25.09
2019-06-26T04:25:54.717Z,25.42
2019-06-26T04:28:25.824Z,26.06
2019-06-26T04:30:56.824Z,27.74
2019-06-26T04:33:27.528Z,29.31
2019-06-26T04:35:58.491Z,30.56
2019-06-26T04:38:29.537Z,31.21
2019-06-26T04:41:00.796Z,32.26
2019-06-26T04:43:31.802Z,33.41
2019-06-26T04:46:03.172Z,34.13
2019-06-26T04:48:34.246Z,34.42
2019-06-26T04:51:05.725Z,34.62
2019-06-26T04:53:36.893Z,34.67
2019-06-26T04:56:07.966Z,34.78
2019-06-26T04:58:39.083Z,34.18
2019-06-26T05:01:09.777Z,32.93
2019-06-26T05:03:40.925Z,32.09
2019-06-26T05:06:12.241Z,31.21
2019-06-26T05:08:42.945Z,30.82
2019-06-26T05:11:13.798Z,30.03
2019-06-26T05:13:44.492Z,29.93
2019-06-26T05:16:19.938Z,29.76
2019-06-26T05:18:47.621Z,29.53
2019-06-26T05:21:18.752Z,29.33
2019-06-26T05:23:49.432Z,29.57
2019-06-26T05:26:20.564Z,30.02
2019-06-26T05:28:51.570Z,30.34
2019-06-26T05:31:22.729Z,30.98
2019-06-26T05:33:53.424Z,32.15
2019-06-26T05:36:24.547Z,32.64
2019-06-26T05:38:55.656Z,32.70
2019-06-26T05:41:27.692Z,32.10
2019-06-26T05:43:58.401Z,31.56
2019-06-26T05:46:31.580Z,31.20
2019-06-26T05:49:01.779Z,31.07
2019-06-26T05:51:32.465Z,31.15
2019-06-26T05:54:03.169Z,31.25
2019-06-26T05:56:34.461Z,31.10
2019-06-26T05:59:05.679Z,30.73
2019-06-26T06:01:36.419Z,30.77
2019-06-26T06:04:07.469Z,31.10
2019-06-26T06:06:42.017Z,31.58
2019-06-26T06:09:10.706Z,32.02
2019-06-26T06:11:41.721Z,32.15
2019-06-26T06:14:12.758Z,32.91
2019-06-26T06:16:47.711Z,33.86
2019-06-26T06:19:15.906Z,34.48
2019-06-26T06:21:48.037Z,34.64
2019-06-26T06:24:18.797Z,34.22
2019-06-26T06:26:49.908Z,33.80
2019-06-26T06:29:20.816Z,33.44
2019-06-26T06:31:51.957Z,33.22
2019-06-26T06:34:23.025Z,32.63
2019-06-26T06:36:53.710Z,32.47
2019-06-26T06:39:24.690Z,32.43
2019-06-26T06:41:55.726Z,32.43
2019-06-26T06:44:26.420Z,32.40
2019-06-26T06:47:04.073Z,32.51
2019-06-26T06:49:29.856Z,32.44
2019-06-26T06:52:00.901Z,32.56
2019-06-26T06:54:31.933Z,32.79
2019-06-26T06:57:02.813Z,32.57
2019-06-26T06:59:33.463Z,32.18
2019-06-26T07:02:04.180Z,31.99
2019-06-26T07:04:34.900Z,32.09
2019-06-26T07:07:05.566Z,32.10
2019-06-26T07:09:36.234Z,32.09
2019-06-26T07:12:07.345Z,32.04
2019-06-26T07:14:38.338Z,32.18
2019-06-26T07:17:19.951Z,32.15
2019-06-26T07:19:41.637Z,32.36
2019-06-26T07:22:12.514Z,32.38
2019-06-26T07:24:43.519Z,32.68
2019-06-26T07:27:14.386Z,32.90
2019-06-26T07:29:45.081Z,32.85
2019-06-26T07:32:16.111Z,33.08
2019-06-26T07:34:47.187Z,33.11
2019-06-26T07:37:20.926Z,33.31
2019-06-26T07:39:50.556Z,33.58
2019-06-26T07:42:21.661Z,33.63
2019-06-26T07:44:53.321Z,33.67
2019-06-26T07:47:41.559Z,33.07
2019-06-26T07:49:56.792Z,32.72
2019-06-26T07:52:27.804Z,32.55
2019-06-26T07:54:58.507Z,32.80
2019-06-26T07:57:29.503Z,33.62
2019-06-26T08:00:04.916Z,34.20
2019-06-26T08:02:30.262Z,35.48
2019-06-26T08:05:01.000Z,36.71
2019-06-26T08:07:33.286Z,37.98
2019-06-26T08:10:05.746Z,38.77
2019-06-26T08:12:37.702Z,40.04
2019-06-26T08:15:09.271Z,40.40
2019-06-26T08:17:39.991Z,41.50
2019-06-26T08:20:11.320Z,41.94
2019-06-26T08:22:42.105Z,42.10
2019-06-26T08:25:13.159Z,42.44
2019-06-26T08:27:44.913Z,42.72
2019-06-26T08:30:16.449Z,42.85
2019-06-26T08:32:47.505Z,40.93
2019-06-26T08:35:18.801Z,38.49
2019-06-26T08:37:49.899Z,38.73
2019-06-26T08:40:21.196Z,39.63
2019-06-26T08:42:51.896Z,40.30
2019-06-26T08:45:22.705Z,40.37
2019-06-26T08:47:53.832Z,39.32
2019-06-26T08:50:24.756Z,39.22
2019-06-26T08:52:55.831Z,40.00
2019-06-26T08:55:27.773Z,38.82
2019-06-26T08:57:58.837Z,39.70
2019-06-26T09:00:29.886Z,39.71
2019-06-26T09:03:00.548Z,38.74
2019-06-26T09:05:47.008Z,38.92
2019-06-26T09:08:05.521Z,38.99
2019-06-26T09:10:37.004Z,39.22
2019-06-26T09:13:07.738Z,37.94
2019-06-26T09:15:38.821Z,37.67
2019-06-26T09:18:09.817Z,37.92
2019-06-26T09:20:41.955Z,36.46
2019-06-26T09:23:12.912Z,36.35
2019-06-26T09:25:43.981Z,36.62
2019-06-26T09:28:14.671Z,36.90
2019-06-26T09:30:45.757Z,36.81
2019-06-26T09:33:16.801Z,38.13
2019-06-26T09:35:47.583Z,38.83
2019-06-26T09:38:18.636Z,39.37
2019-06-26T09:40:49.615Z,39.92
2019-06-26T09:43:20.557Z,38.26
2019-06-26T09:45:51.267Z,36.75
2019-06-26T09:48:21.950Z,37.82
2019-06-26T09:50:52.919Z,38.53
2019-06-26T09:53:23.901Z,38.31
2019-06-26T09:55:54.666Z,38.77
2019-06-26T09:58:25.646Z,37.05
2019-06-26T10:00:56.292Z,36.86
2019-06-26T10:03:27.042Z,37.04
2019-06-26T10:05:58.152Z,37.39
2019-06-26T10:08:28.866Z,36.54
2019-06-26T10:10:59.656Z,37.22
2019-06-26T10:13:30.852Z,37.52
2019-06-26T10:16:01.583Z,38.42
2019-06-26T10:18:32.657Z,38.85
2019-06-26T10:21:03.363Z,39.29
2019-06-26T10:23:34.136Z,39.87
2019-06-26T10:26:04.801Z,40.02
2019-06-26T10:28:35.736Z,40.16
2019-06-26T10:31:06.916Z,38.75
2019-06-26T10:33:37.877Z,38.83
2019-06-26T10:36:08.609Z,38.11
2019-06-26T10:38:42.927Z,38.53
2019-06-26T10:41:14.182Z,38.65
2019-06-26T10:43:45.273Z,38.31
2019-06-26T10:46:16.448Z,39.05
2019-06-26T10:48:47.374Z,39.75
2019-06-26T10:51:18.387Z,39.96
2019-06-26T10:53:49.177Z,40.19
2019-06-26T10:56:19.865Z,39.27
2019-06-26T10:58:50.995Z,39.11
2019-06-26T11:01:21.650Z,39.43
2019-06-26T11:03:53.621Z,39.44
2019-06-26T11:06:24.456Z,40.00
2019-06-26T11:08:55.492Z,40.04
2019-06-26T11:11:26.452Z,40.21
2019-06-26T11:13:57.409Z,39.64
2019-06-26T11:16:28.449Z,38.95
2019-06-26T11:18:59.279Z,38.86
2019-06-26T11:21:30.370Z,39.61
2019-06-26T11:24:01.011Z,38.73
2019-06-26T11:26:32.147Z,39.11
2019-06-26T11:29:03.473Z,39.10
2019-06-26T11:31:34.516Z,38.94
2019-06-26T11:34:05.190Z,38.89
2019-06-26T11:36:36.002Z,38.68
2019-06-26T11:39:09.101Z,38.60
2019-06-26T11:41:40.033Z,38.68
2019-06-26T11:44:11.011Z,38.53
2019-06-26T11:46:41.719Z,39.13
2019-06-26T11:49:12.470Z,40.16
2019-06-26T11:51:43.548Z,39.56
2019-06-26T11:54:14.225Z,40.02
2019-06-26T11:56:44.902Z,40.36
2019-06-26T11:59:15.910Z,40.52
2019-06-26T12:01:46.599Z,40.35
2019-06-26T12:04:17.659Z,39.83
2019-06-26T12:06:48.783Z,39.24
2019-06-26T12:09:19.560Z,39.00
2019-06-26T12:11:50.673Z,37.75
2019-06-26T12:14:21.791Z,37.38
2019-06-26T12:16:53.764Z,37.61
2019-06-26T12:19:24.675Z,37.70
2019-06-26T12:21:55.672Z,37.60
2019-06-26T12:24:26.796Z,37.80
2019-06-26T12:26:57.936Z,37.80
2019-06-26T12:29:32.669Z,37.71
2019-06-26T12:32:02.741Z,37.73
2019-06-26T12:34:33.708Z,37.65
2019-06-26T12:37:04.857Z,37.41
2019-06-26T12:39:35.934Z,37.00
2019-06-26T12:42:06.936Z,36.77
2019-06-26T12:44:38.032Z,36.67
2019-06-26T12:47:08.870Z,36.93
2019-06-26T12:49:40.603Z,36.97
2019-06-26T12:52:11.645Z,36.69
2019-06-26T12:54:42.469Z,36.79
2019-06-26T12:57:13.664Z,36.71
2019-06-26T12:59:56.810Z,36.99
2019-06-26T13:02:17.334Z,37.12
2019-06-26T13:04:48.240Z,37.29
2019-06-26T13:07:18.987Z,37.44
2019-06-26T13:09:49.637Z,37.41
2019-06-26T13:12:20.432Z,37.33
2019-06-26T13:14:51.118Z,37.29
2019-06-26T13:17:21.856Z,37.21
2019-06-26T13:19:53.621Z,37.39
2019-06-26T13:22:24.622Z,37.37
2019-06-26T13:24:55.503Z,37.41
2019-06-26T13:27:26.790Z,37.56
2019-06-26T13:29:57.833Z,37.43
2019-06-26T13:32:29.845Z,37.23
2019-06-26T13:35:00.953Z,37.41
2019-06-26T13:37:32.253Z,37.45
2019-06-26T13:40:05.506Z,37.42
2019-06-26T13:42:36.409Z,37.34
2019-06-26T13:45:09.231Z,37.18
2019-06-26T13:47:40.081Z,37.21
2019-06-26T13:50:11.651Z,37.25
2019-06-26T13:52:42.494Z,37.34
2019-06-26T13:55:14.180Z,37.46
2019-06-26T13:57:44.918Z,37.39
2019-06-26T14:00:17.343Z,37.37
2019-06-26T14:02:48.389Z,37.27
2019-06-26T14:05:20.523Z,37.30
2019-06-26T14:07:51.497Z,37.45
2019-06-26T14:10:22.553Z,37.35
2019-06-26T14:12:53.644Z,37.19
2019-06-26T14:15:25.557Z,37.29
2019-06-26T14:17:56.284Z,37.51
2019-06-26T14:20:27.284Z,37.35
2019-06-26T14:22:57.962Z,37.46
2019-06-26T14:25:28.839Z,37.52
2019-06-26T14:27:59.858Z,37.33
2019-06-26T14:30:30.848Z,37.23
2019-06-26T14:33:01.553Z,37.23
2019-06-26T14:35:32.520Z,37.03
2019-06-26T14:38:03.575Z,37.03
2019-06-26T14:40:34.595Z,37.08
2019-06-26T14:43:05.312Z,37.21
2019-06-26T14:45:36.348Z,37.23
2019-06-26T14:48:07.383Z,37.23
2019-06-26T14:50:38.554Z,37.15
2019-06-26T14:53:09.818Z,37.11
2019-06-26T14:55:40.626Z,37.09
2019-06-26T14:58:11.316Z,37.07
2019-06-26T15:00:42.602Z,37.14
2019-06-26T15:03:13.462Z,37.00
2019-06-26T15:05:44.504Z,37.15
2019-06-26T15:08:15.184Z,37.19
2019-06-26T15:10:45.957Z,37.13
2019-06-26T15:13:16.965Z,37.28
2019-06-26T15:15:48.039Z,37.20
2019-06-26T15:18:18.882Z,37.27
2019-06-26T15:20:49.681Z,37.31
2019-06-26T15:23:22.551Z,37.29
2019-06-26T15:25:53.614Z,37.18
2019-06-26T15:28:27.980Z,37.23
2019-06-26T15:30:59.043Z,37.34
2019-06-26T15:33:29.784Z,37.30
2019-06-26T15:36:00.750Z,37.21
2019-06-26T15:38:31.436Z,37.08
2019-06-26T15:41:02.227Z,36.97
2019-06-26T15:43:33.757Z,36.89
2019-06-26T15:46:05.366Z,36.94
2019-06-26T15:48:36.376Z,36.91
2019-06-26T15:51:07.122Z,36.90
2019-06-26T15:53:37.810Z,36.90
2019-06-26T15:56:08.681Z,36.81
2019-06-26T15:58:39.488Z,36.70
2019-06-26T16:01:10.229Z,36.87
2019-06-26T16:03:41.193Z,36.76
2019-06-26T16:06:12.293Z,36.82
2019-06-26T16:08:43.292Z,36.77
2019-06-26T16:11:14.404Z,36.73
2019-06-26T16:13:45.478Z,36.72
2019-06-26T16:16:16.314Z,36.69
2019-06-26T16:18:48.982Z,36.64
2019-06-26T16:21:19.822Z,36.63
2019-06-26T16:23:50.627Z,36.51
2019-06-26T16:26:21.324Z,36.58
2019-06-26T16:28:52.557Z,36.65
2019-06-26T16:31:23.512Z,36.69
2019-06-26T16:33:54.494Z,36.63
2019-06-26T16:36:25.553Z,36.62
2019-06-26T16:38:56.490Z,36.59
2019-06-26T16:41:27.442Z,36.57
2019-06-26T16:43:58.439Z,36.48
2019-06-26T16:46:29.418Z,36.55
2019-06-26T16:49:00.530Z,36.45
2019-06-26T16:51:31.463Z,36.59
2019-06-26T16:54:02.174Z,36.46
2019-06-26T16:56:33.105Z,36.43
2019-06-26T16:59:04.292Z,36.33
2019-06-26T17:01:35.034Z,36.29
2019-06-26T17:04:05.760Z,36.25
2019-06-26T17:06:37.396Z,36.29
2019-06-26T17:09:09.928Z,36.29
2019-06-26T17:11:40.873Z,36.24
2019-06-26T17:14:11.582Z,36.21
2019-06-26T17:16:42.281Z,36.17
2019-06-26T17:19:13.274Z,36.10
2019-06-26T17:21:44.241Z,36.09
2019-06-26T17:24:15.262Z,35.96
2019-06-26T17:26:46.076Z,36.07
2019-06-26T17:29:17.030Z,36.05
2019-06-26T17:31:47.724Z,35.91
2019-06-26T17:34:18.722Z,35.94
2019-06-26T17:36:50.661Z,35.96
2019-06-26T17:39:21.646Z,35.93
2019-06-26T17:41:52.639Z,35.74
2019-06-26T17:44:23.597Z,35.74
2019-06-26T17:46:54.544Z,35.78
2019-06-26T17:49:25.488Z,35.74
2019-06-26T17:51:56.205Z,35.72
2019-06-26T17:54:27.170Z,35.63
2019-06-26T17:56:57.873Z,35.57
2019-06-26T17:59:28.570Z,35.53
2019-06-26T18:01:59.278Z,35.48
2019-06-26T18:04:30.003Z,35.31
2019-06-26T18:07:00.716Z,35.38
2019-06-26T18:09:31.689Z,35.39
2019-06-26T18:12:02.483Z,35.35
2019-06-26T18:14:33.500Z,35.26
2019-06-26T18:17:20.914Z,35.23
2019-06-26T18:19:37.264Z,35.09
2019-06-26T18:22:08.388Z,35.12
2019-06-26T18:24:39.330Z,34.98
2019-06-26T18:27:10.127Z,34.76
2019-06-26T18:29:40.873Z,34.36
2019-06-26T18:32:11.848Z,33.99
2019-06-26T18:34:46.905Z,33.82
2019-06-26T18:37:20.943Z,33.62
2019-06-26T18:39:57.743Z,33.59
2019-06-26T18:42:29.016Z,33.47
2019-06-26T18:45:00.041Z,33.13
2019-06-26T18:47:31.053Z,33.36
2019-06-26T18:50:01.883Z,33.20
2019-06-26T18:52:32.954Z,33.07
2019-06-26T18:55:05.474Z,32.97
2019-06-26T18:57:36.469Z,32.86
2019-06-26T19:00:09.940Z,32.90
2019-06-26T19:02:41.005Z,32.82
2019-06-26T19:05:12.465Z,32.85
2019-06-26T19:07:43.182Z,32.74
2019-06-26T19:10:16.544Z,32.69
2019-06-26T19:12:48.669Z,32.62
2019-06-26T19:15:20.224Z,32.55
2019-06-26T19:17:51.525Z,32.42
2019-06-26T19:20:23.183Z,32.29
2019-06-26T19:22:53.844Z,32.29
2019-06-26T19:25:24.933Z,32.31
2019-06-26T19:27:55.896Z,32.26
2019-06-26T19:30:26.927Z,32.12
2019-06-26T19:32:57.634Z,32.05
2019-06-26T19:35:28.582Z,31.97
2019-06-26T19:37:59.401Z,31.96
2019-06-26T19:40:30.100Z,31.91
2019-06-26T19:43:00.887Z,31.94
2019-06-26T19:45:31.869Z,31.90
2019-06-26T19:48:02.970Z,31.82
2019-06-26T19:50:34.337Z,31.76
2019-06-26T19:53:07.218Z,31.65
2019-06-26T19:55:38.253Z,31.63
2019-06-26T19:58:09.174Z,31.71
2019-06-26T20:00:40.160Z,31.60
2019-06-26T20:03:11.149Z,31.58
2019-06-26T20:05:42.097Z,31.54
2019-06-26T20:08:13.090Z,31.48
2019-06-26T20:10:44.004Z,31.43
2019-06-26T20:13:14.705Z,31.47
2019-06-26T20:15:45.450Z,31.40
2019-06-26T20:18:16.248Z,31.37
2019-06-26T20:20:46.984Z,31.25
2019-06-26T20:23:17.767Z,31.20
2019-06-26T20:25:52.528Z,31.14
2019-06-26T20:28:23.592Z,31.20
2019-06-26T20:30:54.447Z,31.24
2019-06-26T20:33:25.721Z,31.14
2019-06-26T20:35:56.457Z,31.09
2019-06-26T20:38:27.741Z,31.03
2019-06-26T20:40:59.264Z,30.86
2019-06-26T20:43:30.094Z,30.82
2019-06-26T20:46:01.189Z,30.80
2019-06-26T20:48:32.176Z,30.85
2019-06-26T20:51:03.262Z,30.87
2019-06-26T20:53:34.264Z,30.83
2019-06-26T20:56:05.723Z,30.85
2019-06-26T20:58:39.095Z,30.76
2019-06-26T21:01:10.043Z,30.77
2019-06-26T21:03:40.886Z,30.68
2019-06-26T21:06:12.558Z,30.67
2019-06-26T21:08:43.655Z,30.57
2019-06-26T21:11:15.991Z,30.52
2019-06-26T21:13:48.026Z,30.46
2019-06-26T21:16:19.130Z,30.36
2019-06-26T21:18:50.231Z,30.21
2019-06-26T21:21:21.346Z,30.21
2019-06-26T21:23:52.062Z,30.18
2019-06-26T21:26:23.171Z,30.18
2019-06-26T21:28:54.671Z,30.13
2019-06-26T21:31:25.742Z,30.04
2019-06-26T21:33:57.012Z,30.01
2019-06-26T21:36:27.738Z,29.87
2019-06-26T21:38:58.479Z,29.78
2019-06-26T21:41:29.667Z,29.69
2019-06-26T21:44:01.214Z,29.56
2019-06-26T21:46:31.869Z,29.62
2019-06-26T21:49:03.836Z,29.62
2019-06-26T21:51:34.830Z,29.58
2019-06-26T21:54:05.599Z,29.51
2019-06-26T21:56:54.037Z,29.53
2019-06-26T21:59:42.779Z,29.37
2019-06-26T22:02:32.582Z,29.38
2019-06-26T22:05:11.339Z,29.42
2019-06-26T22:08:01.382Z,29.36
2019-06-26T22:10:37.074Z,29.29
2019-06-26T22:13:07.820Z,29.35
2019-06-26T22:15:38.805Z,29.35
2019-06-26T22:18:10.088Z,29.22
2019-06-26T22:20:41.176Z,29.15
2019-06-26T22:23:12.432Z,29.20
2019-06-26T22:25:50.758Z,29.02
2019-06-26T22:28:16.688Z,28.95
2019-06-26T22:30:47.426Z,28.95
2019-06-26T22:33:18.490Z,28.88
2019-06-26T22:35:49.236Z,28.90
2019-06-26T22:38:20.272Z,29.05
2019-06-26T22:40:51.303Z,28.94
2019-06-26T22:43:41.388Z,28.78
2019-06-26T22:46:12.431Z,28.78
2019-06-26T22:48:43.100Z,28.90
2019-06-26T22:51:13.837Z,28.89
2019-06-26T22:53:45.034Z,28.86
2019-06-26T22:56:16.101Z,28.69
2019-06-26T22:58:46.792Z,28.67
2019-06-26T23:01:17.778Z,28.61
2019-06-26T23:03:48.793Z,28.53
2019-06-26T23:06:20.166Z,28.52
2019-06-26T23:08:50.842Z,28.47
2019-06-26T23:11:21.538Z,28.52
2019-06-26T23:13:52.576Z,28.49
2019-06-26T23:16:23.586Z,28.27
2019-06-26T23:18:54.662Z,28.36
2019-06-26T23:21:25.684Z,28.20
2019-06-26T23:23:56.361Z,28.13
2019-06-26T23:26:27.411Z,28.09
2019-06-26T23:28:58.606Z,28.04
2019-06-26T23:31:29.364Z,27.95
2019-06-26T23:34:00.370Z,27.83
2019-06-26T23:36:31.417Z,27.84
2019-06-26T23:39:02.334Z,27.68
2019-06-26T23:41:33.291Z,27.70
2019-06-26T23:44:04.377Z,27.56
2019-06-26T23:46:35.059Z,27.73
2019-06-26T23:49:06.411Z,27.54
2019-06-26T23:51:38.367Z,27.59
2019-06-26T23:54:09.073Z,27.53
2019-06-26T23:56:40.996Z,27.40
2019-06-26T23:59:12.346Z,27.53
